Kezdőlap
METAR-TAF:

METAR-TAF

Repülőterek :

Asztrahán, Oroszország

földrajzi szélesség: 46-17N, földrajzi hosszúság: 048-00-23E, magasság: 0 m

Jelenlegi meteorológiai megfigyelések

A jelentés 23 perccel ezelõtt készült, 19:00 UTC
Keleti szél 4 kt
Hőmérséklet -5°C
Páratartalom 53%
Légköri nyomás 1027 hPa
Látótávolság 10 km, vagy több
felhőtlen 1500 m magasságban, és nincs gomolyfelhõ

METAR: URWA 191900Z 09002MPS CAVOK M05/M13 Q1027 R09/010070 NOSIG RMK QFE772/1030

Idő: 22:23 (19:23 UTC)

Előrejelzés

A jelentés 2 órával és 23 perccel ezelõtt készült, 17:00 UTC
Az előrejelzés 19-én 18 óra UTC és 20-én 03 óra UTC között érvényes
Kelet-északkeleti szél 6 kt
Látótávolság 10 km, vagy több
Szórványos felhőzet 2000 lábon

TAF: URWA 191700Z 1918/2003 06003MPS 9999 SCT020

Meteorológiai megfigyelések és előrejelzések több, mint 4000 repülőtéren (METAR és TAF jelentéseket).

A térképen piros és sárga pontok jelzik az elérhető meteorológiai állomásokat.

Mozgassa az egeret a pont fölött, hogy megjelenjen az állomás neve.

Azután kattintson az időjárási megfigyelések és előrejelzések megtekintéséhez.

A térkép megváltoztatása: kattintson a fekete keresztel jelölt zöld gombra ráközelítéshez, a vonallal jelölt zöld gombra távolításhoz, vagy a zöld nyilakra a szomszédos térképek eléréséhez.


METAR-TAF: